sensor_id;sensor_type;location;lat;lon;timestamp;temperature;humidity
29453;DHT22;16424;50.956;5.320;2022-11-20T00:00:52;4.30;99.90
29453;DHT22;16424;50.956;5.320;2022-11-20T00:03:18;4.30;99.90
29453;DHT22;16424;50.956;5.320;2022-11-20T00:05:44;4.40;99.90
29453;DHT22;16424;50.956;5.320;2022-11-20T00:08:10;4.60;99.90
29453;DHT22;16424;50.956;5.320;2022-11-20T00:10:37;4.80;99.90
29453;DHT22;16424;50.956;5.320;2022-11-20T00:13:03;4.80;99.90
29453;DHT22;16424;50.956;5.320;2022-11-20T00:15:29;4.70;99.90
29453;DHT22;16424;50.956;5.320;2022-11-20T00:17:54;4.60;99.90
29453;DHT22;16424;50.956;5.320;2022-11-20T00:20:20;4.70;99.90
29453;DHT22;16424;50.956;5.320;2022-11-20T00:22:46;4.70;99.90
29453;DHT22;16424;50.956;5.320;2022-11-20T00:25:11;4.70;99.90
29453;DHT22;16424;50.956;5.320;2022-11-20T00:27:37;4.50;99.90
29453;DHT22;16424;50.956;5.320;2022-11-20T00:30:03;4.50;99.90
29453;DHT22;16424;50.956;5.320;2022-11-20T00:32:30;4.60;99.90
29453;DHT22;16424;50.956;5.320;2022-11-20T00:34:55;4.40;99.90
29453;DHT22;16424;50.956;5.320;2022-11-20T00:37:21;4.30;99.90
29453;DHT22;16424;50.956;5.320;2022-11-20T00:39:47;4.40;99.90
29453;DHT22;16424;50.956;5.320;2022-11-20T00:42:12;4.50;99.90
29453;DHT22;16424;50.956;5.320;2022-11-20T00:44:38;4.60;99.90
29453;DHT22;16424;50.956;5.320;2022-11-20T00:47:04;4.70;99.90
29453;DHT22;16424;50.956;5.320;2022-11-20T00:49:29;4.50;99.90
29453;DHT22;16424;50.956;5.320;2022-11-20T00:51:55;4.60;99.90
29453;DHT22;16424;50.956;5.320;2022-11-20T00:54:21;4.80;99.90
29453;DHT22;16424;50.956;5.320;2022-11-20T00:56:46;5.00;99.90
29453;DHT22;16424;50.956;5.320;2022-11-20T00:59:12;4.90;99.90
29453;DHT22;16424;50.956;5.320;2022-11-20T01:01:37;5.00;99.90
29453;DHT22;16424;50.956;5.320;2022-11-20T01:04:03;5.10;99.90
29453;DHT22;16424;50.956;5.320;2022-11-20T01:06:34;5.10;99.90
29453;DHT22;16424;50.956;5.320;2022-11-20T01:09:06;5.10;99.90
29453;DHT22;16424;50.956;5.320;2022-11-20T01:11:34;5.10;99.90
29453;DHT22;16424;50.956;5.320;2022-11-20T01:14:02;5.20;99.90
29453;DHT22;16424;50.956;5.320;2022-11-20T01:16:32;5.20;99.90
29453;DHT22;16424;50.956;5.320;2022-11-20T01:18:59;5.20;99.90
29453;DHT22;16424;50.956;5.320;2022-11-20T01:21:29;5.30;99.90
29453;DHT22;16424;50.956;5.320;2022-11-20T01:23:55;5.30;99.90
29453;DHT22;16424;50.956;5.320;2022-11-20T01:26:24;5.30;99.90
29453;DHT22;16424;50.956;5.320;2022-11-20T01:28:50;5.30;99.90
29453;DHT22;16424;50.956;5.320;2022-11-20T01:31:22;5.20;99.90
29453;DHT22;16424;50.956;5.320;2022-11-20T01:33:50;5.20;99.90
29453;DHT22;16424;50.956;5.320;2022-11-20T01:36:17;5.20;99.90
29453;DHT22;16424;50.956;5.320;2022-11-20T01:38:43;5.10;99.90
29453;DHT22;16424;50.956;5.320;2022-11-20T01:41:10;5.20;99.90
29453;DHT22;16424;50.956;5.320;2022-11-20T01:43:36;5.20;99.90
29453;DHT22;16424;50.956;5.320;2022-11-20T01:46:06;5.30;99.90
29453;DHT22;16424;50.956;5.320;2022-11-20T01:51:02;5.30;99.90
29453;DHT22;16424;50.956;5.320;2022-11-20T01:53:32;5.30;99.90
29453;DHT22;16424;50.956;5.320;2022-11-20T01:56:00;5.30;99.90
29453;DHT22;16424;50.956;5.320;2022-11-20T01:58:32;5.40;99.90
29453;DHT22;16424;50.956;5.320;2022-11-20T02:00:59;5.40;99.90
29453;DHT22;16424;50.956;5.320;2022-11-20T02:03:25;5.40;99.90
29453;DHT22;16424;50.956;5.320;2022-11-20T02:08:38;5.30;99.90
29453;DHT22;16424;50.956;5.320;2022-11-20T02:11:04;5.40;99.90
29453;DHT22;16424;50.956;5.320;2022-11-20T02:13:29;5.50;99.90
29453;DHT22;16424;50.956;5.320;2022-11-20T02:18:36;5.50;99.90
29453;DHT22;16424;50.956;5.320;2022-11-20T02:26:28;5.50;99.90
29453;DHT22;16424;50.956;5.320;2022-11-20T02:28:55;5.40;99.90
29453;DHT22;16424;50.956;5.320;2022-11-20T02:31:21;5.40;99.90
29453;DHT22;16424;50.956;5.320;2022-11-20T02:33:46;5.40;99.90
29453;DHT22;16424;50.956;5.320;2022-11-20T02:36:15;5.50;99.90
29453;DHT22;16424;50.956;5.320;2022-11-20T02:38:42;5.40;99.90
29453;DHT22;16424;50.956;5.320;2022-11-20T02:41:08;5.30;99.90
29453;DHT22;16424;50.956;5.320;2022-11-20T02:43:34;5.40;99.90
29453;DHT22;16424;50.956;5.320;2022-11-20T02:45:59;5.30;99.90
29453;DHT22;16424;50.956;5.320;2022-11-20T02:48:25;5.30;99.90
29453;DHT22;16424;50.956;5.320;2022-11-20T02:50:50;5.20;99.90
29453;DHT22;16424;50.956;5.320;2022-11-20T02:53:16;5.20;99.90
29453;DHT22;16424;50.956;5.320;2022-11-20T02:55:42;5.20;99.90
29453;DHT22;16424;50.956;5.320;2022-11-20T02:58:07;5.40;99.90
29453;DHT22;16424;50.956;5.320;2022-11-20T03:00:33;5.30;99.90
29453;DHT22;16424;50.956;5.320;2022-11-20T03:02:59;5.30;99.90
29453;DHT22;16424;50.956;5.320;2022-11-20T03:05:24;5.30;99.90
29453;DHT22;16424;50.956;5.320;2022-11-20T03:07:50;5.20;99.90
29453;DHT22;16424;50.956;5.320;2022-11-20T03:10:15;5.20;99.90
29453;DHT22;16424;50.956;5.320;2022-11-20T03:12:41;5.20;99.90
29453;DHT22;16424;50.956;5.320;2022-11-20T03:15:07;5.20;99.90
29453;DHT22;16424;50.956;5.320;2022-11-20T03:17:33;5.20;99.90
29453;DHT22;16424;50.956;5.320;2022-11-20T03:19:58;5.20;99.90
29453;DHT22;16424;50.956;5.320;2022-11-20T03:22:24;5.30;99.90
29453;DHT22;16424;50.956;5.320;2022-11-20T03:24:50;5.40;99.90
29453;DHT22;16424;50.956;5.320;2022-11-20T03:27:16;5.40;99.90
29453;DHT22;16424;50.956;5.320;2022-11-20T03:29:42;5.30;99.90
29453;DHT22;16424;50.956;5.320;2022-11-20T03:32:07;5.30;99.90
29453;DHT22;16424;50.956;5.320;2022-11-20T03:34:33;5.30;99.90
29453;DHT22;16424;50.956;5.320;2022-11-20T03:36:59;5.40;99.90
29453;DHT22;16424;50.956;5.320;2022-11-20T03:39:24;5.40;99.90
29453;DHT22;16424;50.956;5.320;2022-11-20T03:41:50;5.30;99.90
29453;DHT22;16424;50.956;5.320;2022-11-20T03:44:15;5.30;99.90
29453;DHT22;16424;50.956;5.320;2022-11-20T03:46:41;5.40;99.90
29453;DHT22;16424;50.956;5.320;2022-11-20T03:49:07;5.40;99.90
29453;DHT22;16424;50.956;5.320;2022-11-20T03:51:34;5.50;99.90
29453;DHT22;16424;50.956;5.320;2022-11-20T03:54:02;5.50;99.90
29453;DHT22;16424;50.956;5.320;2022-11-20T03:56:30;5.60;99.90
29453;DHT22;16424;50.956;5.320;2022-11-20T03:58:57;5.50;99.90
29453;DHT22;16424;50.956;5.320;2022-11-20T04:01:25;5.50;99.90
29453;DHT22;16424;50.956;5.320;2022-11-20T04:03:55;5.50;99.90
29453;DHT22;16424;50.956;5.320;2022-11-20T04:06:26;5.50;99.90
29453;DHT22;16424;50.956;5.320;2022-11-20T04:08:55;5.50;99.90
29453;DHT22;16424;50.956;5.320;2022-11-20T04:11:25;5.50;99.90
29453;DHT22;16424;50.956;5.320;2022-11-20T04:13:54;5.50;99.90
29453;DHT22;16424;50.956;5.320;2022-11-20T04:16:21;5.50;99.90
29453;DHT22;16424;50.956;5.320;2022-11-20T04:18:51;5.50;99.90
29453;DHT22;16424;50.956;5.320;2022-11-20T04:21:16;5.50;99.90
29453;DHT22;16424;50.956;5.320;2022-11-20T04:23:42;5.50;99.90
29453;DHT22;16424;50.956;5.320;2022-11-20T04:26:10;5.50;99.90
29453;DHT22;16424;50.956;5.320;2022-11-20T04:28:37;5.60;99.90
29453;DHT22;16424;50.956;5.320;2022-11-20T04:31:08;5.60;99.90
29453;DHT22;16424;50.956;5.320;2022-11-20T04:33:35;5.60;99.90
29453;DHT22;16424;50.956;5.320;2022-11-20T04:36:12;5.60;99.90
29453;DHT22;16424;50.956;5.320;2022-11-20T04:38:38;5.60;99.90
29453;DHT22;16424;50.956;5.320;2022-11-20T04:41:05;5.50;99.90
29453;DHT22;16424;50.956;5.320;2022-11-20T04:43:32;5.50;99.90
29453;DHT22;16424;50.956;5.320;2022-11-20T04:45:59;5.50;99.90
29453;DHT22;16424;50.956;5.320;2022-11-20T04:48:26;5.50;99.90
29453;DHT22;16424;50.956;5.320;2022-11-20T04:50:52;5.70;99.90
29453;DHT22;16424;50.956;5.320;2022-11-20T04:53:18;5.60;99.90
29453;DHT22;16424;50.956;5.320;2022-11-20T04:55:44;5.60;99.90
29453;DHT22;16424;50.956;5.320;2022-11-20T04:58:10;5.70;99.90
29453;DHT22;16424;50.956;5.320;2022-11-20T05:00:36;5.70;99.90
29453;DHT22;16424;50.956;5.320;2022-11-20T05:03:02;5.80;99.90
29453;DHT22;16424;50.956;5.320;2022-11-20T05:05:28;5.70;99.90
29453;DHT22;16424;50.956;5.320;2022-11-20T05:07:56;5.70;99.90
29453;DHT22;16424;50.956;5.320;2022-11-20T05:10:23;5.60;99.90
29453;DHT22;16424;50.956;5.320;2022-11-20T05:12:49;5.70;99.90
29453;DHT22;16424;50.956;5.320;2022-11-20T05:15:14;5.60;99.90
29453;DHT22;16424;50.956;5.320;2022-11-20T05:17:40;5.60;99.90
29453;DHT22;16424;50.956;5.320;2022-11-20T05:20:06;5.60;99.90
29453;DHT22;16424;50.956;5.320;2022-11-20T05:22:32;5.70;99.90
29453;DHT22;16424;50.956;5.320;2022-11-20T05:24:57;5.70;99.90
29453;DHT22;16424;50.956;5.320;2022-11-20T05:27:23;5.70;99.90
29453;DHT22;16424;50.956;5.320;2022-11-20T05:29:49;5.80;99.90
29453;DHT22;16424;50.956;5.320;2022-11-20T05:32:14;5.80;99.90
29453;DHT22;16424;50.956;5.320;2022-11-20T05:34:40;5.80;99.90
29453;DHT22;16424;50.956;5.320;2022-11-20T05:37:05;5.80;99.90
29453;DHT22;16424;50.956;5.320;2022-11-20T05:39:31;5.70;99.90
29453;DHT22;16424;50.956;5.320;2022-11-20T05:41:57;5.70;99.90
29453;DHT22;16424;50.956;5.320;2022-11-20T05:44:41;5.70;99.90
29453;DHT22;16424;50.956;5.320;2022-11-20T05:47:07;5.70;99.90
29453;DHT22;16424;50.956;5.320;2022-11-20T05:49:32;5.70;99.90
29453;DHT22;16424;50.956;5.320;2022-11-20T05:51:58;5.80;99.90
29453;DHT22;16424;50.956;5.320;2022-11-20T05:54:24;5.80;99.90
29453;DHT22;16424;50.956;5.320;2022-11-20T05:56:49;5.90;99.90
29453;DHT22;16424;50.956;5.320;2022-11-20T05:59:15;5.80;99.90
29453;DHT22;16424;50.956;5.320;2022-11-20T06:01:40;5.80;99.90
29453;DHT22;16424;50.956;5.320;2022-11-20T06:04:06;5.80;99.90
29453;DHT22;16424;50.956;5.320;2022-11-20T06:06:32;5.90;99.90
29453;DHT22;16424;50.956;5.320;2022-11-20T06:08:57;5.80;99.90
29453;DHT22;16424;50.956;5.320;2022-11-20T06:11:24;5.80;99.90
29453;DHT22;16424;50.956;5.320;2022-11-20T06:13:50;5.80;99.90
29453;DHT22;16424;50.956;5.320;2022-11-20T06:16:18;5.80;99.90
29453;DHT22;16424;50.956;5.320;2022-11-20T06:18:45;5.80;99.90
29453;DHT22;16424;50.956;5.320;2022-11-20T06:21:16;5.80;99.90
29453;DHT22;16424;50.956;5.320;2022-11-20T06:23:43;5.90;99.90
29453;DHT22;16424;50.956;5.320;2022-11-20T06:26:11;5.80;99.90
29453;DHT22;16424;50.956;5.320;2022-11-20T06:28:38;5.90;99.90
29453;DHT22;16424;50.956;5.320;2022-11-20T06:31:05;5.80;99.90
29453;DHT22;16424;50.956;5.320;2022-11-20T06:33:32;5.90;99.90
29453;DHT22;16424;50.956;5.320;2022-11-20T06:36:01;5.90;99.90
29453;DHT22;16424;50.956;5.320;2022-11-20T06:38:27;5.90;99.90
29453;DHT22;16424;50.956;5.320;2022-11-20T06:40:53;5.90;99.90
29453;DHT22;16424;50.956;5.320;2022-11-20T06:43:19;5.90;99.90
29453;DHT22;16424;50.956;5.320;2022-11-20T06:45:45;5.80;99.90
29453;DHT22;16424;50.956;5.320;2022-11-20T06:48:11;5.80;99.90
29453;DHT22;16424;50.956;5.320;2022-11-20T06:50:37;5.90;99.90
29453;DHT22;16424;50.956;5.320;2022-11-20T06:53:03;5.90;99.90
29453;DHT22;16424;50.956;5.320;2022-11-20T06:55:30;5.90;99.90
29453;DHT22;16424;50.956;5.320;2022-11-20T06:57:56;5.80;99.90
29453;DHT22;16424;50.956;5.320;2022-11-20T07:00:22;5.70;99.90
29453;DHT22;16424;50.956;5.320;2022-11-20T07:02:47;5.50;99.90
29453;DHT22;16424;50.956;5.320;2022-11-20T07:05:13;5.70;99.90
29453;DHT22;16424;50.956;5.320;2022-11-20T07:07:39;5.80;99.90
29453;DHT22;16424;50.956;5.320;2022-11-20T07:10:05;5.90;99.90
29453;DHT22;16424;50.956;5.320;2022-11-20T07:12:33;6.10;99.90
29453;DHT22;16424;50.956;5.320;2022-11-20T07:14:59;6.20;99.90
29453;DHT22;16424;50.956;5.320;2022-11-20T07:17:25;6.10;99.90
29453;DHT22;16424;50.956;5.320;2022-11-20T07:19:50;5.90;99.90
29453;DHT22;16424;50.956;5.320;2022-11-20T07:22:16;6.00;99.90
29453;DHT22;16424;50.956;5.320;2022-11-20T07:24:42;6.00;99.90
29453;DHT22;16424;50.956;5.320;2022-11-20T07:27:08;6.00;99.90
29453;DHT22;16424;50.956;5.320;2022-11-20T07:29:33;6.10;99.90
29453;DHT22;16424;50.956;5.320;2022-11-20T07:32:02;6.20;99.90
29453;DHT22;16424;50.956;5.320;2022-11-20T07:34:32;6.20;99.90
29453;DHT22;16424;50.956;5.320;2022-11-20T07:36:57;6.10;99.90
29453;DHT22;16424;50.956;5.320;2022-11-20T07:39:23;5.60;99.90
29453;DHT22;16424;50.956;5.320;2022-11-20T07:41:48;5.60;99.90
29453;DHT22;16424;50.956;5.320;2022-11-20T07:44:14;5.70;99.90
29453;DHT22;16424;50.956;5.320;2022-11-20T07:46:40;5.60;99.90
29453;DHT22;16424;50.956;5.320;2022-11-20T07:49:05;5.80;99.90
29453;DHT22;16424;50.956;5.320;2022-11-20T07:51:31;6.00;99.90
29453;DHT22;16424;50.956;5.320;2022-11-20T07:53:56;6.10;99.90
29453;DHT22;16424;50.956;5.320;2022-11-20T07:56:22;6.10;99.90
29453;DHT22;16424;50.956;5.320;2022-11-20T07:58:48;6.30;99.90
29453;DHT22;16424;50.956;5.320;2022-11-20T08:01:14;6.30;99.90
29453;DHT22;16424;50.956;5.320;2022-11-20T08:03:39;6.40;99.90
29453;DHT22;16424;50.956;5.320;2022-11-20T08:06:05;6.50;99.90
29453;DHT22;16424;50.956;5.320;2022-11-20T08:08:31;6.50;99.90
29453;DHT22;16424;50.956;5.320;2022-11-20T08:10:57;6.60;99.90
29453;DHT22;16424;50.956;5.320;2022-11-20T08:13:43;6.40;99.90
29453;DHT22;16424;50.956;5.320;2022-11-20T08:16:28;6.40;99.90
29453;DHT22;16424;50.956;5.320;2022-11-20T08:18:53;6.30;99.90
29453;DHT22;16424;50.956;5.320;2022-11-20T08:21:19;6.40;99.90
29453;DHT22;16424;50.956;5.320;2022-11-20T08:23:45;6.40;99.90
29453;DHT22;16424;50.956;5.320;2022-11-20T08:26:10;6.50;99.90
29453;DHT22;16424;50.956;5.320;2022-11-20T08:28:36;6.60;99.90
29453;DHT22;16424;50.956;5.320;2022-11-20T08:31:02;6.60;99.90
29453;DHT22;16424;50.956;5.320;2022-11-20T08:33:29;6.70;99.90
29453;DHT22;16424;50.956;5.320;2022-11-20T08:36:02;6.90;99.90
29453;DHT22;16424;50.956;5.320;2022-11-20T08:38:29;6.80;99.90
29453;DHT22;16424;50.956;5.320;2022-11-20T08:40:59;6.70;99.90
29453;DHT22;16424;50.956;5.320;2022-11-20T08:43:43;6.50;99.90
29453;DHT22;16424;50.956;5.320;2022-11-20T08:46:09;6.50;99.90
29453;DHT22;16424;50.956;5.320;2022-11-20T08:48:34;6.40;99.90
29453;DHT22;16424;50.956;5.320;2022-11-20T08:51:00;6.40;99.90
29453;DHT22;16424;50.956;5.320;2022-11-20T08:53:27;6.20;99.90
29453;DHT22;16424;50.956;5.320;2022-11-20T08:55:53;6.30;99.90
29453;DHT22;16424;50.956;5.320;2022-11-20T08:58:18;6.40;99.90
29453;DHT22;16424;50.956;5.320;2022-11-20T09:00:44;6.40;99.90
29453;DHT22;16424;50.956;5.320;2022-11-20T09:03:09;6.50;99.90
29453;DHT22;16424;50.956;5.320;2022-11-20T09:05:35;6.50;99.90
29453;DHT22;16424;50.956;5.320;2022-11-20T09:08:01;6.70;99.90
29453;DHT22;16424;50.956;5.320;2022-11-20T09:10:27;6.50;99.90
29453;DHT22;16424;50.956;5.320;2022-11-20T09:12:53;6.60;99.90
29453;DHT22;16424;50.956;5.320;2022-11-20T09:15:20;6.90;99.90
29453;DHT22;16424;50.956;5.320;2022-11-20T09:17:56;6.90;99.90
29453;DHT22;16424;50.956;5.320;2022-11-20T09:20:27;6.80;99.90
29453;DHT22;16424;50.956;5.320;2022-11-20T09:22:54;6.90;99.90
29453;DHT22;16424;50.956;5.320;2022-11-20T09:25:20;6.90;99.90
29453;DHT22;16424;50.956;5.320;2022-11-20T09:27:46;7.00;99.90
29453;DHT22;16424;50.956;5.320;2022-11-20T09:30:13;7.00;99.90
29453;DHT22;16424;50.956;5.320;2022-11-20T09:32:39;7.00;99.90
29453;DHT22;16424;50.956;5.320;2022-11-20T09:35:06;6.80;99.90
29453;DHT22;16424;50.956;5.320;2022-11-20T09:37:32;7.10;99.90
29453;DHT22;16424;50.956;5.320;2022-11-20T09:40:01;7.00;99.90
29453;DHT22;16424;50.956;5.320;2022-11-20T09:42:56;6.90;99.90
29453;DHT22;16424;50.956;5.320;2022-11-20T09:51:31;7.10;99.90
29453;DHT22;16424;50.956;5.320;2022-11-20T09:54:22;7.10;99.90
29453;DHT22;16424;50.956;5.320;2022-11-20T09:57:05;7.10;99.90
29453;DHT22;16424;50.956;5.320;2022-11-20T09:59:46;7.10;99.90
29453;DHT22;16424;50.956;5.320;2022-11-20T10:02:44;7.10;99.90
29453;DHT22;16424;50.956;5.320;2022-11-20T10:05:19;7.20;99.90
29453;DHT22;16424;50.956;5.320;2022-11-20T10:07:54;7.30;99.90
29453;DHT22;16424;50.956;5.320;2022-11-20T10:10:38;7.40;99.90
29453;DHT22;16424;50.956;5.320;2022-11-20T10:18:58;6.90;99.90
29453;DHT22;16424;50.956;5.320;2022-11-20T10:29:38;6.80;99.90
29453;DHT22;16424;50.956;5.320;2022-11-20T10:32:14;7.00;99.90
29453;DHT22;16424;50.956;5.320;2022-11-20T10:34:53;7.00;99.90
29453;DHT22;16424;50.956;5.320;2022-11-20T10:37:26;6.90;99.90
29453;DHT22;16424;50.956;5.320;2022-11-20T10:40:28;6.90;99.90
29453;DHT22;16424;50.956;5.320;2022-11-20T10:42:59;6.90;99.90
29453;DHT22;16424;50.956;5.320;2022-11-20T10:50:26;7.20;99.90
29453;DHT22;16424;50.956;5.320;2022-11-20T10:53:02;7.50;99.90
29453;DHT22;16424;50.956;5.320;2022-11-20T10:58:22;7.70;99.90
29453;DHT22;16424;50.956;5.320;2022-11-20T11:00:51;7.60;99.90
29453;DHT22;16424;50.956;5.320;2022-11-20T11:03:26;7.60;99.90
29453;DHT22;16424;50.956;5.320;2022-11-20T11:06:08;7.60;99.90
29453;DHT22;16424;50.956;5.320;2022-11-20T11:08:39;7.70;99.90
29453;DHT22;16424;50.956;5.320;2022-11-20T11:11:30;7.80;99.90
29453;DHT22;16424;50.956;5.320;2022-11-20T11:14:18;7.70;99.90
29453;DHT22;16424;50.956;5.320;2022-11-20T11:16:56;7.90;99.90
29453;DHT22;16424;50.956;5.320;2022-11-20T11:19:22;7.90;99.90
29453;DHT22;16424;50.956;5.320;2022-11-20T11:21:51;8.10;99.90
29453;DHT22;16424;50.956;5.320;2022-11-20T11:24:25;8.30;99.90
29453;DHT22;16424;50.956;5.320;2022-11-20T11:27:04;8.20;99.90
29453;DHT22;16424;50.956;5.320;2022-11-20T11:29:35;8.10;99.90
29453;DHT22;16424;50.956;5.320;2022-11-20T11:32:20;8.00;99.90
29453;DHT22;16424;50.956;5.320;2022-11-20T11:35:06;8.10;99.90
29453;DHT22;16424;50.956;5.320;2022-11-20T11:37:37;8.20;99.90
29453;DHT22;16424;50.956;5.320;2022-11-20T11:40:05;8.20;99.90
29453;DHT22;16424;50.956;5.320;2022-11-20T11:42:31;8.10;99.90
29453;DHT22;16424;50.956;5.320;2022-11-20T11:44:59;8.00;99.90
29453;DHT22;16424;50.956;5.320;2022-11-20T11:47:36;8.20;99.90
29453;DHT22;16424;50.956;5.320;2022-11-20T11:52:56;8.60;99.90
29453;DHT22;16424;50.956;5.320;2022-11-20T11:55:30;8.80;99.90
29453;DHT22;16424;50.956;5.320;2022-11-20T12:06:41;9.20;99.90
29453;DHT22;16424;50.956;5.320;2022-11-20T12:09:10;9.20;99.90
29453;DHT22;16424;50.956;5.320;2022-11-20T12:11:45;9.20;99.90
29453;DHT22;16424;50.956;5.320;2022-11-20T12:14:19;9.30;99.90
29453;DHT22;16424;50.956;5.320;2022-11-20T12:16:49;9.30;99.90
29453;DHT22;16424;50.956;5.320;2022-11-20T12:19:16;9.40;99.90
29453;DHT22;16424;50.956;5.320;2022-11-20T12:25:05;9.70;99.90
29453;DHT22;16424;50.956;5.320;2022-11-20T12:30:19;9.80;99.90
29453;DHT22;16424;50.956;5.320;2022-11-20T12:43:48;9.90;99.90
29453;DHT22;16424;50.956;5.320;2022-11-20T12:47:12;10.00;99.90
29453;DHT22;16424;50.956;5.320;2022-11-20T12:49:50;10.30;99.90
29453;DHT22;16424;50.956;5.320;2022-11-20T12:55:41;10.30;99.90
29453;DHT22;16424;50.956;5.320;2022-11-20T12:58:33;10.40;99.90
29453;DHT22;16424;50.956;5.320;2022-11-20T13:06:58;10.10;99.90
29453;DHT22;16424;50.956;5.320;2022-11-20T13:09:24;10.20;99.90
29453;DHT22;16424;50.956;5.320;2022-11-20T13:12:14;10.30;99.90
29453;DHT22;16424;50.956;5.320;2022-11-20T13:15:05;10.30;99.90
29453;DHT22;16424;50.956;5.320;2022-11-20T13:20:22;10.20;99.90
29453;DHT22;16424;50.956;5.320;2022-11-20T13:22:50;10.00;99.90
29453;DHT22;16424;50.956;5.320;2022-11-20T13:25:28;10.10;99.90
29453;DHT22;16424;50.956;5.320;2022-11-20T13:27:57;9.90;99.90
29453;DHT22;16424;50.956;5.320;2022-11-20T13:30:24;9.70;99.90
29453;DHT22;16424;50.956;5.320;2022-11-20T13:33:04;9.60;99.90
29453;DHT22;16424;50.956;5.320;2022-11-20T13:36:01;9.50;99.90
29453;DHT22;16424;50.956;5.320;2022-11-20T13:38:28;9.50;99.90
29453;DHT22;16424;50.956;5.320;2022-11-20T13:40:59;9.60;99.90
29453;DHT22;16424;50.956;5.320;2022-11-20T13:43:47;9.60;99.90
29453;DHT22;16424;50.956;5.320;2022-11-20T13:46:13;9.50;99.90
29453;DHT22;16424;50.956;5.320;2022-11-20T13:48:45;9.50;99.90
29453;DHT22;16424;50.956;5.320;2022-11-20T13:59:57;9.00;99.90
29453;DHT22;16424;50.956;5.320;2022-11-20T14:02:26;9.10;99.90
29453;DHT22;16424;50.956;5.320;2022-11-20T14:04:54;9.00;99.90
29453;DHT22;16424;50.956;5.320;2022-11-20T14:07:24;8.90;99.90
29453;DHT22;16424;50.956;5.320;2022-11-20T14:09:52;8.90;99.90
29453;DHT22;16424;50.956;5.320;2022-11-20T14:12:23;8.80;99.90
29453;DHT22;16424;50.956;5.320;2022-11-20T14:14:51;8.70;99.90
29453;DHT22;16424;50.956;5.320;2022-11-20T14:17:35;8.60;99.90
29453;DHT22;16424;50.956;5.320;2022-11-20T14:20:13;8.60;99.90
29453;DHT22;16424;50.956;5.320;2022-11-20T14:22:48;8.80;99.90
29453;DHT22;16424;50.956;5.320;2022-11-20T14:27:54;8.60;99.90
29453;DHT22;16424;50.956;5.320;2022-11-20T14:30:25;8.70;99.90
29453;DHT22;16424;50.956;5.320;2022-11-20T14:32:54;8.60;99.90
29453;DHT22;16424;50.956;5.320;2022-11-20T14:35:26;8.60;99.90
29453;DHT22;16424;50.956;5.320;2022-11-20T14:37:53;8.50;99.90
29453;DHT22;16424;50.956;5.320;2022-11-20T14:42:48;8.30;99.90
29453;DHT22;16424;50.956;5.320;2022-11-20T14:45:15;8.30;99.90
29453;DHT22;16424;50.956;5.320;2022-11-20T14:47:41;8.30;99.90
29453;DHT22;16424;50.956;5.320;2022-11-20T14:50:21;8.30;99.90
29453;DHT22;16424;50.956;5.320;2022-11-20T14:52:55;8.20;99.90
29453;DHT22;16424;50.956;5.320;2022-11-20T14:55:38;8.20;99.90
29453;DHT22;16424;50.956;5.320;2022-11-20T14:58:24;8.20;99.90
29453;DHT22;16424;50.956;5.320;2022-11-20T15:01:01;8.30;99.90
29453;DHT22;16424;50.956;5.320;2022-11-20T15:03:40;8.20;99.90
29453;DHT22;16424;50.956;5.320;2022-11-20T15:06:10;8.20;99.90
29453;DHT22;16424;50.956;5.320;2022-11-20T15:08:36;8.20;99.90
29453;DHT22;16424;50.956;5.320;2022-11-20T15:11:02;8.20;99.90
29453;DHT22;16424;50.956;5.320;2022-11-20T15:13:38;8.30;99.90
29453;DHT22;16424;50.956;5.320;2022-11-20T15:16:20;8.40;99.90
29453;DHT22;16424;50.956;5.320;2022-11-20T15:18:46;8.30;99.90
29453;DHT22;16424;50.956;5.320;2022-11-20T15:21:18;8.20;99.90
29453;DHT22;16424;50.956;5.320;2022-11-20T15:23:44;8.10;99.90
29453;DHT22;16424;50.956;5.320;2022-11-20T15:26:11;8.10;99.90
29453;DHT22;16424;50.956;5.320;2022-11-20T15:28:42;8.30;99.90
29453;DHT22;16424;50.956;5.320;2022-11-20T15:31:14;8.40;99.90
29453;DHT22;16424;50.956;5.320;2022-11-20T15:33:39;8.40;99.90
29453;DHT22;16424;50.956;5.320;2022-11-20T15:36:05;8.30;99.90
29453;DHT22;16424;50.956;5.320;2022-11-20T15:38:31;8.30;99.90
29453;DHT22;16424;50.956;5.320;2022-11-20T15:40:56;8.50;99.90
29453;DHT22;16424;50.956;5.320;2022-11-20T15:43:22;8.40;99.90
29453;DHT22;16424;50.956;5.320;2022-11-20T15:46:09;8.40;99.90
29453;DHT22;16424;50.956;5.320;2022-11-20T15:48:39;8.30;99.90
29453;DHT22;16424;50.956;5.320;2022-11-20T15:53:43;8.40;99.90
29453;DHT22;16424;50.956;5.320;2022-11-20T15:56:11;8.40;99.90
29453;DHT22;16424;50.956;5.320;2022-11-20T15:58:38;8.40;99.90
29453;DHT22;16424;50.956;5.320;2022-11-20T16:01:03;8.50;99.90
29453;DHT22;16424;50.956;5.320;2022-11-20T16:03:29;8.50;99.90
29453;DHT22;16424;50.956;5.320;2022-11-20T16:05:55;8.50;99.90
29453;DHT22;16424;50.956;5.320;2022-11-20T16:08:21;8.60;99.90
29453;DHT22;16424;50.956;5.320;2022-11-20T16:10:47;8.60;99.90
29453;DHT22;16424;50.956;5.320;2022-11-20T16:13:17;8.60;99.90
29453;DHT22;16424;50.956;5.320;2022-11-20T16:16:04;8.60;99.90
29453;DHT22;16424;50.956;5.320;2022-11-20T16:18:31;8.60;99.90
29453;DHT22;16424;50.956;5.320;2022-11-20T16:20:57;8.70;99.90
29453;DHT22;16424;50.956;5.320;2022-11-20T16:23:23;8.60;99.90
29453;DHT22;16424;50.956;5.320;2022-11-20T16:25:50;8.70;99.90
29453;DHT22;16424;50.956;5.320;2022-11-20T16:28:16;8.70;99.90
29453;DHT22;16424;50.956;5.320;2022-11-20T16:30:45;8.70;99.90
29453;DHT22;16424;50.956;5.320;2022-11-20T16:33:14;8.80;99.90
29453;DHT22;16424;50.956;5.320;2022-11-20T16:35:40;8.80;99.90
29453;DHT22;16424;50.956;5.320;2022-11-20T16:38:06;8.80;99.90
29453;DHT22;16424;50.956;5.320;2022-11-20T16:40:32;8.90;99.90
29453;DHT22;16424;50.956;5.320;2022-11-20T16:43:07;8.80;99.90
29453;DHT22;16424;50.956;5.320;2022-11-20T16:45:33;8.90;99.90
29453;DHT22;16424;50.956;5.320;2022-11-20T16:47:59;8.90;99.90
29453;DHT22;16424;50.956;5.320;2022-11-20T16:50:25;9.00;99.90
29453;DHT22;16424;50.956;5.320;2022-11-20T16:52:51;8.90;99.90
29453;DHT22;16424;50.956;5.320;2022-11-20T16:55:17;9.00;99.90
29453;DHT22;16424;50.956;5.320;2022-11-20T16:57:42;9.10;99.90
29453;DHT22;16424;50.956;5.320;2022-11-20T17:00:08;9.10;99.90
29453;DHT22;16424;50.956;5.320;2022-11-20T17:02:34;9.10;99.90
29453;DHT22;16424;50.956;5.320;2022-11-20T17:05:00;9.10;99.90
29453;DHT22;16424;50.956;5.320;2022-11-20T17:07:25;9.10;99.90
29453;DHT22;16424;50.956;5.320;2022-11-20T17:09:51;9.20;99.90
29453;DHT22;16424;50.956;5.320;2022-11-20T17:12:16;9.20;99.90
29453;DHT22;16424;50.956;5.320;2022-11-20T17:14:42;9.20;99.90
29453;DHT22;16424;50.956;5.320;2022-11-20T17:17:08;9.20;99.90
29453;DHT22;16424;50.956;5.320;2022-11-20T17:19:33;9.10;99.90
29453;DHT22;16424;50.956;5.320;2022-11-20T17:22:02;9.00;99.90
29453;DHT22;16424;50.956;5.320;2022-11-20T17:24:27;9.00;99.90
29453;DHT22;16424;50.956;5.320;2022-11-20T17:26:53;9.00;99.90
29453;DHT22;16424;50.956;5.320;2022-11-20T17:29:19;9.10;99.90
29453;DHT22;16424;50.956;5.320;2022-11-20T17:31:49;9.00;99.90
29453;DHT22;16424;50.956;5.320;2022-11-20T17:34:15;9.00;99.90